Kezdőlap
METAR-TAF:

METAR-TAF

Repülőterek :

Appleton Municipal Airport

Appleton, Minnesota, Amerikai Egyesült Államok

földrajzi szélesség: 45-13-39N, földrajzi hosszúság: 096-00-15W, magasság: 310 m

Jelenlegi meteorológiai megfigyelések

A jelentés 18 perccel ezelõtt készült, 09:30 UTC
Észak-északnyugati szél 16 kt széllökések: 25 kt
Hőmérséklet -9°C
Páratartalom 79%
Légköri nyomás 1008 hPa
Látótávolság: 1.6 km
Borult 600 lábon

METAR: KAQP 090930Z AUTO 33016G25KT 1SM SN OVC006 M09/M12 A2976 RMK AO2

Idő: 03:48 (09:48 UTC)


TAF: hiányzik

Meteorológiai megfigyelések és előrejelzések több, mint 4000 repülőtéren (METAR és TAF jelentéseket).

A térképen piros és sárga pontok jelzik az elérhető meteorológiai állomásokat.

Mozgassa az egeret a pont fölött, hogy megjelenjen az állomás neve.

Azután kattintson az időjárási megfigyelések és előrejelzések megtekintéséhez.

A térkép megváltoztatása: kattintson a fekete keresztel jelölt zöld gombra ráközelítéshez, a vonallal jelölt zöld gombra távolításhoz, vagy a zöld nyilakra a szomszédos térképek eléréséhez.


METAR-TAF: